createdAt,value
2019-02-06T00:01:39.301Z,-0.10
2019-02-06T00:03:46.655Z,-0.10
2019-02-06T00:05:53.853Z,-0.09
2019-02-06T00:08:01.196Z,-0.09
2019-02-06T00:10:08.707Z,-0.07
2019-02-06T00:12:16.104Z,-0.08
2019-02-06T00:14:23.554Z,-0.08
2019-02-06T00:16:30.704Z,-0.07
2019-02-06T00:18:38.118Z,-0.06
2019-02-06T00:20:45.618Z,-0.08
2019-02-06T00:22:53.037Z,-0.06
2019-02-06T00:25:00.444Z,-0.08
2019-02-06T00:27:07.973Z,-0.04
2019-02-06T00:29:15.361Z,-0.04
2019-02-06T00:31:22.527Z,-0.04
2019-02-06T00:33:29.960Z,-0.06
2019-02-06T00:35:37.306Z,-0.04
2019-02-06T00:37:44.753Z,-0.05
2019-02-06T00:39:52.160Z,-0.07
2019-02-06T00:42:01.311Z,-0.03
2019-02-06T00:44:08.814Z,-0.05
2019-02-06T00:46:16.281Z,-0.01
2019-02-06T00:48:23.787Z,-0.03
2019-02-06T00:50:31.303Z,-0.02
2019-02-06T00:52:38.708Z,-0.06
2019-02-06T00:54:46.049Z,-0.04
2019-02-06T00:56:53.630Z,-0.04
2019-02-06T00:59:01.129Z,-0.02
2019-02-06T01:01:09.035Z,-0.03
2019-02-06T01:03:16.630Z,-0.03
2019-02-06T01:05:24.189Z,-0.02
2019-02-06T01:07:31.590Z,0.01
2019-02-06T01:09:39.045Z,0.01
2019-02-06T01:11:46.426Z,-0.02
2019-02-06T01:13:53.887Z,-0.02
2019-02-06T01:16:01.283Z,-0.01
2019-02-06T01:18:08.705Z,0.01
2019-02-06T01:20:17.117Z,0.01
2019-02-06T01:22:24.509Z,0.03
2019-02-06T01:24:32.219Z,0.02
2019-02-06T01:26:39.781Z,0.01
2019-02-06T01:28:47.051Z,0.00
2019-02-06T01:31:04.062Z,0.03
2019-02-06T01:33:11.477Z,0.01
2019-02-06T01:35:18.849Z,0.02
2019-02-06T01:37:26.227Z,0.03
2019-02-06T01:39:33.864Z,0.04
2019-02-06T01:41:41.238Z,0.01
2019-02-06T01:43:48.627Z,0.05
2019-02-06T01:45:56.023Z,0.06
2019-02-06T01:48:03.383Z,0.06
2019-02-06T01:50:12.430Z,0.04
2019-02-06T01:52:19.441Z,0.01
2019-02-06T01:54:26.473Z,0.03
2019-02-06T01:56:33.535Z,0.03
2019-02-06T01:58:40.734Z,0.02
2019-02-06T02:00:47.980Z,0.05
2019-02-06T02:02:55.316Z,0.05
2019-02-06T02:05:02.728Z,0.05
2019-02-06T02:07:10.555Z,0.08
2019-02-06T02:09:21.297Z,0.07
2019-02-06T02:11:28.660Z,0.07
2019-02-06T02:13:36.231Z,0.04
2019-02-06T02:15:43.718Z,0.04
2019-02-06T02:17:51.088Z,0.07
2019-02-06T02:19:58.434Z,0.06
2019-02-06T02:22:06.078Z,0.08
2019-02-06T02:24:13.338Z,0.07
2019-02-06T02:26:20.774Z,0.08
2019-02-06T02:28:28.095Z,0.12
2019-02-06T02:30:43.338Z,0.12
2019-02-06T02:32:50.338Z,0.11
2019-02-06T02:34:57.392Z,0.12
2019-02-06T02:37:04.797Z,0.13
2019-02-06T02:39:11.850Z,0.12
2019-02-06T02:41:18.887Z,0.14
2019-02-06T02:43:25.887Z,0.14
2019-02-06T02:45:33.207Z,0.14
2019-02-06T02:47:40.301Z,0.13
2019-02-06T02:49:47.663Z,0.13
2019-02-06T02:51:54.916Z,0.12
2019-02-06T02:54:02.164Z,0.12
2019-02-06T02:56:09.369Z,0.13
2019-02-06T02:58:16.788Z,0.12
2019-02-06T03:00:30.899Z,0.14
2019-02-06T03:02:47.540Z,0.13
2019-02-06T03:05:05.219Z,0.15
2019-02-06T03:07:12.508Z,0.14
2019-02-06T03:09:19.833Z,0.15
2019-02-06T03:11:27.147Z,0.13
2019-02-06T03:13:34.801Z,0.13
2019-02-06T03:15:42.080Z,0.17
2019-02-06T03:17:49.481Z,0.16
2019-02-06T03:19:56.920Z,0.15
2019-02-06T03:22:04.267Z,0.16
2019-02-06T03:24:12.053Z,0.16
2019-02-06T03:26:19.429Z,0.17
2019-02-06T03:28:26.838Z,0.19
2019-02-06T03:30:34.232Z,0.20
2019-02-06T03:32:41.782Z,0.20
2019-02-06T03:34:49.060Z,0.20
2019-02-06T03:36:56.417Z,0.21
2019-02-06T03:39:05.313Z,0.23
2019-02-06T03:41:12.677Z,0.21
2019-02-06T03:43:19.911Z,0.21
2019-02-06T03:45:27.144Z,0.22
2019-02-06T03:47:34.554Z,0.22
2019-02-06T03:49:42.769Z,0.23
2019-02-06T03:51:50.175Z,0.24
2019-02-06T03:53:57.707Z,0.26
2019-02-06T03:56:05.182Z,0.25
2019-02-06T03:58:12.697Z,0.25
2019-02-06T04:00:20.133Z,0.27
2019-02-06T04:02:27.585Z,0.25
2019-02-06T04:04:35.018Z,0.28
2019-02-06T04:06:53.675Z,0.29
2019-02-06T04:08:51.110Z,0.29
2019-02-06T04:10:58.677Z,0.30
2019-02-06T04:13:05.991Z,0.31
2019-02-06T04:15:13.081Z,0.30
2019-02-06T04:17:20.108Z,0.33
2019-02-06T04:19:27.819Z,0.32
2019-02-06T04:21:35.194Z,0.35
2019-02-06T04:23:42.592Z,0.35
2019-02-06T04:25:50.107Z,0.35
2019-02-06T04:27:57.535Z,0.37
2019-02-06T04:30:05.097Z,0.38
2019-02-06T04:32:12.508Z,0.38
2019-02-06T04:34:19.848Z,0.40
2019-02-06T04:36:27.228Z,0.40
2019-02-06T04:38:34.651Z,0.42
2019-02-06T04:40:42.053Z,0.41
2019-02-06T04:42:49.222Z,0.45
2019-02-06T04:44:56.618Z,0.43
2019-02-06T04:47:04.368Z,0.46
2019-02-06T04:49:11.868Z,0.49
2019-02-06T04:51:19.325Z,0.49
2019-02-06T04:53:26.700Z,0.49
2019-02-06T04:55:34.052Z,0.50
2019-02-06T04:57:41.512Z,0.52
2019-02-06T04:59:48.918Z,0.52
2019-02-06T05:01:56.388Z,0.50
2019-02-06T05:04:03.842Z,0.50
2019-02-06T05:06:11.157Z,0.51
2019-02-06T05:08:18.634Z,0.55
2019-02-06T05:10:25.867Z,0.54
2019-02-06T05:12:33.334Z,0.55
2019-02-06T05:14:41.052Z,0.54
2019-02-06T05:16:48.488Z,0.53
2019-02-06T05:18:55.682Z,0.55
2019-02-06T05:21:03.173Z,0.54
2019-02-06T05:23:10.928Z,0.54
2019-02-06T05:25:18.351Z,0.55
2019-02-06T05:27:26.026Z,0.54
2019-02-06T05:29:34.434Z,0.55
2019-02-06T05:31:41.925Z,0.58
2019-02-06T05:33:49.286Z,0.57
2019-02-06T05:35:56.690Z,0.58
2019-02-06T05:38:04.099Z,0.58
2019-02-06T05:40:11.365Z,0.58
2019-02-06T05:42:18.918Z,0.58
2019-02-06T05:44:26.402Z,0.59
2019-02-06T05:46:33.762Z,0.61
2019-02-06T05:48:44.349Z,0.61
2019-02-06T05:50:51.678Z,0.61
2019-02-06T05:52:59.008Z,0.62
2019-02-06T05:55:07.200Z,0.63
2019-02-06T05:57:14.432Z,0.60
2019-02-06T05:59:21.735Z,0.59
2019-02-06T06:01:29.061Z,0.62
2019-02-06T06:03:36.574Z,0.61
2019-02-06T06:05:44.073Z,0.63
2019-02-06T06:07:51.532Z,0.64
2019-02-06T06:09:59.115Z,0.64
2019-02-06T06:12:06.595Z,0.64
2019-02-06T06:14:13.945Z,0.64
2019-02-06T06:16:21.474Z,0.65
2019-02-06T06:18:28.789Z,0.66
2019-02-06T06:20:36.256Z,0.65
2019-02-06T06:22:43.654Z,0.65
2019-02-06T06:24:51.138Z,0.66
2019-02-06T06:26:58.525Z,0.68
2019-02-06T06:29:05.987Z,0.66
2019-02-06T06:31:13.334Z,0.67
2019-02-06T06:33:20.719Z,0.65
2019-02-06T06:35:28.841Z,0.67
2019-02-06T06:37:36.190Z,0.67
2019-02-06T06:39:43.664Z,0.65
2019-02-06T06:41:51.058Z,0.65
2019-02-06T06:43:58.483Z,0.65
2019-02-06T06:46:05.947Z,0.64
2019-02-06T06:48:13.302Z,0.65
2019-02-06T06:50:22.919Z,0.65
2019-02-06T06:52:30.041Z,0.62
2019-02-06T06:54:37.461Z,0.65
2019-02-06T06:56:44.779Z,0.68
2019-02-06T06:58:52.131Z,0.67
2019-02-06T07:00:59.583Z,0.69
2019-02-06T07:03:07.133Z,0.71
2019-02-06T07:05:14.562Z,0.70
2019-02-06T07:07:22.012Z,0.70
2019-02-06T07:09:29.362Z,0.71
2019-02-06T07:11:36.834Z,0.71
2019-02-06T07:13:44.288Z,0.70
2019-02-06T07:15:51.623Z,0.72
2019-02-06T07:17:59.148Z,0.73
2019-02-06T07:20:07.453Z,0.73
2019-02-06T07:22:14.815Z,0.73
2019-02-06T07:24:22.253Z,0.73
2019-02-06T07:26:29.715Z,0.75
2019-02-06T07:28:37.048Z,0.75
2019-02-06T07:30:56.238Z,0.76
2019-02-06T07:33:06.737Z,0.75
2019-02-06T07:35:13.960Z,0.78
2019-02-06T07:37:21.280Z,0.76
2019-02-06T07:39:28.676Z,0.77
2019-02-06T07:41:35.856Z,0.78
2019-02-06T07:43:43.705Z,0.79
2019-02-06T07:45:51.245Z,0.78
2019-02-06T07:47:58.827Z,0.80
2019-02-06T07:50:07.780Z,0.81
2019-02-06T07:52:15.328Z,0.84
2019-02-06T07:54:22.707Z,0.84
2019-02-06T07:56:30.245Z,0.86
2019-02-06T07:58:37.498Z,0.86
2019-02-06T08:00:44.908Z,0.86
2019-02-06T08:02:52.579Z,0.88
2019-02-06T08:05:06.391Z,0.88
2019-02-06T08:07:13.806Z,0.91
2019-02-06T08:09:21.165Z,0.91
2019-02-06T08:11:28.592Z,0.92
2019-02-06T08:13:35.876Z,0.93
2019-02-06T08:15:43.418Z,0.94
2019-02-06T08:17:50.909Z,0.96
2019-02-06T08:19:58.277Z,0.99
2019-02-06T08:22:05.807Z,0.99
2019-02-06T08:24:13.361Z,1.01
2019-02-06T08:26:20.769Z,1.05
2019-02-06T08:28:28.205Z,1.08
2019-02-06T08:30:41.320Z,1.09
2019-02-06T08:32:48.586Z,1.12
2019-02-06T08:34:56.100Z,1.13
2019-02-06T08:37:03.648Z,1.18
2019-02-06T08:39:11.486Z,1.21
2019-02-06T08:41:18.940Z,1.23
2019-02-06T08:43:26.395Z,1.25
2019-02-06T08:45:34.091Z,1.28
2019-02-06T08:47:41.801Z,1.32
2019-02-06T08:49:49.334Z,1.34
2019-02-06T08:51:56.809Z,1.38
2019-02-06T08:54:04.278Z,1.38
2019-02-06T08:56:11.835Z,1.40
2019-02-06T08:58:19.330Z,1.42
2019-02-06T09:00:29.855Z,1.42
2019-02-06T09:02:37.505Z,1.43
2019-02-06T09:04:55.563Z,1.45
2019-02-06T09:06:54.718Z,1.48
2019-02-06T09:09:02.564Z,1.48
2019-02-06T09:11:10.980Z,1.54
2019-02-06T09:13:18.590Z,1.59
2019-02-06T09:15:27.330Z,1.59
2019-02-06T09:17:34.970Z,1.56
2019-02-06T09:19:42.558Z,1.60
2019-02-06T09:21:50.154Z,1.63
2019-02-06T09:23:57.850Z,1.66
2019-02-06T09:26:05.416Z,1.69
2019-02-06T09:28:12.859Z,1.78
2019-02-06T09:30:23.402Z,1.81
2019-02-06T09:32:30.900Z,1.78
2019-02-06T09:34:38.525Z,1.86
2019-02-06T09:36:46.028Z,1.87
2019-02-06T09:38:53.680Z,1.89
2019-02-06T09:41:01.173Z,1.89
2019-02-06T09:43:08.891Z,1.96
2019-02-06T09:45:16.325Z,1.98
2019-02-06T09:47:23.655Z,2.00
2019-02-06T09:49:31.135Z,1.98
2019-02-06T09:51:38.657Z,1.90
2019-02-06T09:53:46.235Z,1.97
2019-02-06T09:55:53.688Z,2.03
2019-02-06T09:58:01.178Z,2.08
2019-02-06T10:00:13.294Z,2.15
2019-02-06T10:02:20.786Z,2.10
2019-02-06T10:04:28.216Z,1.96
2019-02-06T10:06:35.803Z,2.04
2019-02-06T10:08:43.285Z,2.02
2019-02-06T10:10:50.653Z,2.09
2019-02-06T10:12:58.047Z,2.02
2019-02-06T10:15:05.661Z,2.00
2019-02-06T10:17:13.129Z,1.96
2019-02-06T10:19:20.473Z,2.01
2019-02-06T10:21:27.845Z,2.00
2019-02-06T10:23:35.342Z,2.01
2019-02-06T10:25:43.459Z,2.00
2019-02-06T10:27:51.066Z,1.96
2019-02-06T10:29:58.728Z,2.02
2019-02-06T10:32:07.436Z,2.09
2019-02-06T10:34:15.026Z,2.16
2019-02-06T10:36:22.450Z,2.22
2019-02-06T10:38:29.913Z,2.22
2019-02-06T10:40:37.288Z,2.25
2019-02-06T10:42:44.866Z,2.33
2019-02-06T10:44:52.311Z,2.46
2019-02-06T10:46:59.731Z,2.62
2019-02-06T10:49:07.820Z,2.72
2019-02-06T10:51:15.870Z,2.68
2019-02-06T10:53:25.026Z,2.72
2019-02-06T10:55:32.514Z,2.68
2019-02-06T10:57:40.334Z,2.63
2019-02-06T10:59:47.902Z,2.68
2019-02-06T11:01:55.535Z,2.67
2019-02-06T11:04:03.012Z,2.68
2019-02-06T11:06:10.705Z,2.65
2019-02-06T11:08:18.524Z,2.71
2019-02-06T11:10:26.351Z,2.84
2019-02-06T11:12:34.385Z,2.90
2019-02-06T11:14:42.010Z,2.85
2019-02-06T11:16:49.553Z,2.89
2019-02-06T11:18:57.329Z,2.85
2019-02-06T11:21:04.696Z,2.80
2019-02-06T11:23:12.285Z,2.81
2019-02-06T11:25:20.080Z,2.78
2019-02-06T11:27:27.706Z,2.73
2019-02-06T11:29:35.219Z,2.72
2019-02-06T11:31:42.821Z,2.75
2019-02-06T11:33:50.466Z,2.71
2019-02-06T11:35:58.090Z,2.73
2019-02-06T11:38:05.667Z,2.72
2019-02-06T11:40:18.644Z,2.82
2019-02-06T11:42:26.239Z,2.85
2019-02-06T11:44:33.990Z,2.91
2019-02-06T11:46:41.574Z,2.98
2019-02-06T11:48:49.087Z,2.98
2019-02-06T11:50:57.360Z,3.00
2019-02-06T11:53:05.018Z,3.01
2019-02-06T11:55:16.625Z,2.97
2019-02-06T11:57:24.427Z,3.05
2019-02-06T11:59:32.024Z,3.19
2019-02-06T12:01:46.409Z,3.25
2019-02-06T12:03:54.278Z,3.31
2019-02-06T12:06:01.562Z,3.21
2019-02-06T12:08:12.414Z,3.10
2019-02-06T12:10:19.126Z,3.10
2019-02-06T12:12:26.604Z,3.09
2019-02-06T12:14:34.200Z,3.14
2019-02-06T12:16:41.974Z,3.24
2019-02-06T12:18:49.472Z,3.34
2019-02-06T12:20:57.131Z,3.27
2019-02-06T12:23:05.595Z,3.32
2019-02-06T12:25:15.342Z,3.43
2019-02-06T12:27:23.265Z,3.39
2019-02-06T12:29:31.304Z,3.36
2019-02-06T12:31:39.050Z,3.39
2019-02-06T12:33:46.677Z,3.33
2019-02-06T12:35:54.087Z,3.35
2019-02-06T12:38:01.535Z,3.38
2019-02-06T12:40:20.747Z,3.29
2019-02-06T12:42:18.265Z,3.22
2019-02-06T12:44:25.291Z,3.27
2019-02-06T12:46:32.562Z,3.38
2019-02-06T12:48:40.161Z,3.41
2019-02-06T12:50:47.306Z,3.48
2019-02-06T12:52:57.225Z,3.70
2019-02-06T12:55:03.349Z,3.65
2019-02-06T12:57:10.396Z,3.58
2019-02-06T12:59:17.620Z,3.58
2019-02-06T13:01:24.840Z,3.54
2019-02-06T13:03:31.979Z,3.60
2019-02-06T13:05:39.085Z,3.50
2019-02-06T13:07:46.144Z,3.56
2019-02-06T13:09:53.196Z,3.48
2019-02-06T13:12:00.398Z,3.44
2019-02-06T13:14:07.663Z,3.39
2019-02-06T13:16:14.804Z,3.35
2019-02-06T13:18:24.140Z,3.34
2019-02-06T13:20:31.444Z,3.32
2019-02-06T13:22:38.469Z,3.34
2019-02-06T13:24:45.932Z,3.36
2019-02-06T13:26:53.047Z,3.44
2019-02-06T13:29:00.667Z,3.45
2019-02-06T13:31:07.718Z,3.46
2019-02-06T13:33:14.832Z,3.46
2019-02-06T13:35:21.895Z,3.45
2019-02-06T13:37:28.977Z,3.45
2019-02-06T13:39:36.070Z,3.51
2019-02-06T13:41:43.367Z,3.55
2019-02-06T13:43:50.568Z,3.54
2019-02-06T13:45:57.744Z,3.52
2019-02-06T13:48:05.342Z,3.53
2019-02-06T13:50:21.526Z,3.52
2019-02-06T13:52:22.189Z,3.44
2019-02-06T13:54:29.327Z,3.48
2019-02-06T13:56:37.136Z,3.45
2019-02-06T13:58:44.663Z,3.40
2019-02-06T14:00:52.599Z,3.35
2019-02-06T14:02:59.936Z,3.25
2019-02-06T14:05:07.212Z,3.25
2019-02-06T14:07:14.316Z,3.17
2019-02-06T14:09:24.251Z,3.20
2019-02-06T14:11:30.208Z,3.11
2019-02-06T14:13:37.388Z,3.09
2019-02-06T14:15:47.038Z,3.03
2019-02-06T14:17:54.463Z,2.96
2019-02-06T14:20:01.917Z,2.92
2019-02-06T14:22:09.990Z,2.83
2019-02-06T14:24:55.503Z,2.79
2019-02-06T14:27:59.666Z,2.77
2019-02-06T14:31:02.846Z,2.76
2019-02-06T14:34:21.520Z,2.74
2019-02-06T14:37:45.814Z,2.72
2019-02-06T14:40:53.659Z,2.64
2019-02-06T14:43:39.074Z,2.63
2019-02-06T14:46:47.907Z,2.55
2019-02-06T14:49:34.916Z,2.57
2019-02-06T14:52:23.418Z,2.54
2019-02-06T14:55:24.700Z,2.46
2019-02-06T14:58:22.519Z,2.43
2019-02-06T15:00:59.910Z,2.44
2019-02-06T15:03:58.642Z,2.38
2019-02-06T15:07:05.892Z,2.31
2019-02-06T15:10:20.447Z,2.27
2019-02-06T15:13:22.637Z,2.26
2019-02-06T15:16:09.783Z,2.21
2019-02-06T15:19:15.013Z,2.08
2019-02-06T15:22:17.557Z,2.09
2019-02-06T15:25:08.515Z,2.07
2019-02-06T15:28:06.666Z,2.00
2019-02-06T15:31:22.655Z,1.95
2019-02-06T15:34:15.521Z,1.85
2019-02-06T15:36:50.615Z,1.75
2019-02-06T15:39:51.614Z,1.56
2019-02-06T15:42:57.580Z,1.44
2019-02-06T15:45:37.884Z,1.41
2019-02-06T15:48:30.023Z,1.40
2019-02-06T15:51:38.383Z,1.25
2019-02-06T15:54:21.176Z,1.11
2019-02-06T15:57:26.677Z,1.03
2019-02-06T16:00:24.393Z,0.96
2019-02-06T16:03:56.158Z,0.96
2019-02-06T16:06:53.242Z,0.89
2019-02-06T16:09:45.814Z,0.81
2019-02-06T16:13:08.604Z,0.68
2019-02-06T16:16:44.260Z,0.61
2019-02-06T16:19:23.774Z,0.64
2019-02-06T16:22:07.317Z,0.48
2019-02-06T16:25:09.966Z,0.37
2019-02-06T16:28:00.204Z,0.34
2019-02-06T16:31:12.619Z,0.31
2019-02-06T16:34:06.473Z,0.28
2019-02-06T16:40:37.580Z,0.04
2019-02-06T16:43:35.460Z,-0.02
2019-02-06T16:46:49.681Z,-0.05
2019-02-06T16:49:28.020Z,-0.07
2019-02-06T16:52:19.816Z,-0.05
2019-02-06T16:55:30.927Z,-0.09
2019-02-06T16:58:20.822Z,-0.26
2019-02-06T17:01:21.922Z,-0.32
2019-02-06T17:04:04.922Z,-0.43
2019-02-06T17:06:45.616Z,-0.45
2019-02-06T17:10:05.007Z,-0.43
2019-02-06T17:12:59.326Z,-0.40
2019-02-06T17:16:11.980Z,-0.62
2019-02-06T17:19:17.013Z,-0.58
2019-02-06T17:22:08.311Z,-0.66
2019-02-06T17:25:10.264Z,-0.65
2019-02-06T17:28:27.993Z,-0.60
2019-02-06T17:31:42.589Z,-0.60
2019-02-06T17:34:48.624Z,-0.77
2019-02-06T17:37:56.649Z,-0.86
2019-02-06T17:41:18.643Z,-0.91
2019-02-06T17:44:17.176Z,-0.83
2019-02-06T17:46:51.394Z,-0.68
2019-02-06T17:49:49.659Z,-0.78
2019-02-06T17:52:44.527Z,-0.85
2019-02-06T17:55:38.985Z,-0.64
2019-02-06T17:57:47.083Z,-0.67
2019-02-06T17:59:54.628Z,-0.57
2019-02-06T18:02:02.539Z,-0.67
2019-02-06T18:04:49.401Z,-0.79
2019-02-06T18:06:57.334Z,-0.67
2019-02-06T18:09:08.399Z,-0.67
2019-02-06T18:11:16.098Z,-0.61
2019-02-06T18:13:24.149Z,-0.66
2019-02-06T18:15:31.671Z,-0.63
2019-02-06T18:17:39.331Z,-0.58
2019-02-06T18:19:47.163Z,-0.52
2019-02-06T18:21:54.749Z,-0.52
2019-02-06T18:24:02.279Z,-0.59
2019-02-06T18:26:10.224Z,-0.62
2019-02-06T18:28:18.520Z,-0.50
2019-02-06T18:30:27.410Z,-0.52
2019-02-06T18:32:34.884Z,-0.46
2019-02-06T18:34:42.621Z,-0.47
2019-02-06T18:36:50.135Z,-0.53
2019-02-06T18:38:58.127Z,-0.48
2019-02-06T18:41:06.156Z,-0.45
2019-02-06T18:43:13.708Z,-0.44
2019-02-06T18:45:22.748Z,-0.44
2019-02-06T18:47:30.484Z,-0.51
2019-02-06T18:49:37.838Z,-0.48
2019-02-06T18:51:45.849Z,-0.51
2019-02-06T18:53:53.562Z,-0.38
2019-02-06T18:56:01.080Z,-0.39
2019-02-06T18:58:09.308Z,-0.51
2019-02-06T19:00:24.478Z,-0.48
2019-02-06T19:02:32.195Z,-0.44
2019-02-06T19:04:40.720Z,-0.44
2019-02-06T19:06:48.521Z,-0.50
2019-02-06T19:08:58.093Z,-0.54
2019-02-06T19:11:05.955Z,-0.54
2019-02-06T19:13:14.356Z,-0.60
2019-02-06T19:15:22.317Z,-0.65
2019-02-06T19:17:30.959Z,-0.68
2019-02-06T19:19:39.137Z,-0.69
2019-02-06T19:21:46.722Z,-0.73
2019-02-06T19:23:54.314Z,-0.76
2019-02-06T19:26:01.986Z,-0.80
2019-02-06T19:28:09.505Z,-0.78
2019-02-06T19:30:26.020Z,-0.88
2019-02-06T19:32:34.013Z,-0.93
2019-02-06T19:34:41.687Z,-0.97
2019-02-06T19:36:49.242Z,-1.09
2019-02-06T19:38:56.762Z,-1.04
2019-02-06T19:41:04.466Z,-0.95
2019-02-06T19:43:11.964Z,-0.99
2019-02-06T19:45:20.060Z,-0.98
2019-02-06T19:47:30.560Z,-0.85
2019-02-06T19:49:37.765Z,-0.80
2019-02-06T19:51:45.730Z,-0.78
2019-02-06T19:53:53.246Z,-0.79
2019-02-06T19:56:00.948Z,-0.77
2019-02-06T19:58:09.385Z,-0.80
2019-02-06T20:00:21.317Z,-0.82
2019-02-06T20:02:29.247Z,-0.78
2019-02-06T20:04:37.232Z,-0.77
2019-02-06T20:06:44.979Z,-0.78
2019-02-06T20:08:52.697Z,-0.76
2019-02-06T20:11:01.254Z,-0.74
2019-02-06T20:13:11.441Z,-0.78
2019-02-06T20:15:18.327Z,-0.75
2019-02-06T20:17:26.190Z,-0.84
2019-02-06T20:19:33.920Z,-0.85
2019-02-06T20:21:41.462Z,-0.88
2019-02-06T20:23:48.838Z,-0.88
2019-02-06T20:25:56.916Z,-0.89
2019-02-06T20:28:04.821Z,-0.92
2019-02-06T20:30:17.294Z,-0.95
2019-02-06T20:32:24.945Z,-1.10
2019-02-06T20:34:32.834Z,-1.12
2019-02-06T20:36:40.549Z,-1.16
2019-02-06T20:38:48.841Z,-1.18
2019-02-06T20:40:58.407Z,-1.17
2019-02-06T20:43:06.295Z,-1.28
2019-02-06T20:45:14.124Z,-1.38
2019-02-06T20:47:22.064Z,-1.36
2019-02-06T20:49:29.731Z,-1.26
2019-02-06T20:51:37.439Z,-1.17
2019-02-06T20:53:45.212Z,-1.11
2019-02-06T20:55:52.867Z,-1.17
2019-02-06T20:58:00.613Z,-1.19
2019-02-06T21:00:12.751Z,-1.19
2019-02-06T21:02:20.440Z,-1.18
2019-02-06T21:04:28.333Z,-1.14
2019-02-06T21:06:35.766Z,-1.12
2019-02-06T21:08:43.386Z,-1.12
2019-02-06T21:10:51.376Z,-1.16
2019-02-06T21:12:59.274Z,-1.23
2019-02-06T21:15:06.913Z,-1.25
2019-02-06T21:17:14.566Z,-1.22
2019-02-06T21:19:22.638Z,-1.28
2019-02-06T21:21:30.419Z,-1.25
2019-02-06T21:23:37.940Z,-1.23
2019-02-06T21:25:46.962Z,-1.27
2019-02-06T21:27:54.549Z,-1.21
2019-02-06T21:30:02.187Z,-1.27
2019-02-06T21:32:09.691Z,-1.31
2019-02-06T21:34:17.266Z,-1.37
2019-02-06T21:36:24.667Z,-1.36
2019-02-06T21:38:32.313Z,-1.38
2019-02-06T21:40:39.850Z,-1.50
2019-02-06T21:42:47.946Z,-1.51
2019-02-06T21:44:55.913Z,-1.50
2019-02-06T21:47:04.022Z,-1.48
2019-02-06T21:49:11.811Z,-1.54
2019-02-06T21:51:19.451Z,-1.52
2019-02-06T21:53:26.848Z,-1.58
2019-02-06T21:55:34.608Z,-1.59
2019-02-06T21:57:43.824Z,-1.69
2019-02-06T21:59:51.359Z,-1.66
2019-02-06T22:01:59.108Z,-1.70
2019-02-06T22:04:07.094Z,-1.73
2019-02-06T22:06:14.911Z,-1.69
2019-02-06T22:08:24.890Z,-1.73
2019-02-06T22:10:32.548Z,-1.74
2019-02-06T22:12:40.107Z,-1.74
2019-02-06T22:14:47.868Z,-1.76
2019-02-06T22:16:55.326Z,-1.81
2019-02-06T22:19:03.195Z,-1.77
2019-02-06T22:21:11.061Z,-1.83
2019-02-06T22:23:19.032Z,-1.87
2019-02-06T22:25:27.199Z,-1.89
2019-02-06T22:27:35.334Z,-1.85
2019-02-06T22:29:43.380Z,-1.86
2019-02-06T22:31:51.099Z,-2.03
2019-02-06T22:33:59.224Z,-2.03
2019-02-06T22:36:07.064Z,-2.02
2019-02-06T22:38:14.823Z,-2.04
2019-02-06T22:40:24.492Z,-1.97
2019-02-06T22:42:32.561Z,-2.01
2019-02-06T22:44:41.136Z,-2.00
2019-02-06T22:46:48.978Z,-2.02
2019-02-06T22:48:56.967Z,-2.00
2019-02-06T22:51:04.796Z,-2.10
2019-02-06T22:53:12.707Z,-2.10
2019-02-06T22:55:20.625Z,-2.04
2019-02-06T22:57:28.632Z,-1.99
2019-02-06T22:59:36.252Z,-2.00
2019-02-06T23:02:02.177Z,-1.94
2019-02-06T23:04:09.885Z,-2.00
2019-02-06T23:06:17.649Z,-1.95
2019-02-06T23:08:25.481Z,-1.87
2019-02-06T23:10:33.128Z,-1.96
2019-02-06T23:12:40.815Z,-1.95
2019-02-06T23:14:48.459Z,-1.88
2019-02-06T23:16:56.328Z,-1.94
2019-02-06T23:19:04.176Z,-1.93
2019-02-06T23:21:11.970Z,-1.90
2019-02-06T23:23:19.798Z,-1.91
2019-02-06T23:25:27.406Z,-1.88
2019-02-06T23:27:35.143Z,-1.89
2019-02-06T23:29:43.045Z,-1.89
2019-02-06T23:31:50.981Z,-1.90
2019-02-06T23:33:59.024Z,-1.88
2019-02-06T23:36:07.212Z,-1.86
2019-02-06T23:38:14.949Z,-1.84
2019-02-06T23:40:22.918Z,-1.87
2019-02-06T23:42:30.803Z,-1.87
2019-02-06T23:44:38.533Z,-1.81
2019-02-06T23:46:46.031Z,-1.87
2019-02-06T23:48:53.651Z,-1.82
2019-02-06T23:51:01.490Z,-1.74
2019-02-06T23:53:09.153Z,-1.77
2019-02-06T23:55:16.819Z,-1.71
2019-02-06T23:57:24.380Z,-1.76
2019-02-06T23:59:32.087Z,-1.70
